1892 Hurricane NOT_NAMED (1892279N11305)


IBTrACS version v04r00. Visit IBTrACS website for data access.
Please direct all questions to the IBTrACS Q and A forum

Storm track - Intensity - Wind Radii - Intensity Data - Source Data - All data

Summary Information

Storm ID 1892279N11305
Start Oct 5 00Z
Landfall Oct 8 09Z, Oct 8 18Z, Oct 11 18Z, Oct 12 18Z, Oct 13 18Z, Oct 15 09Z
Max Intensity 90 kt (Oct 9 12Z), 990 mb (Oct 11 00Z)
End Oct 16 00Z
ATCF IDs AL071892
Track status Best track data.

Storm track plot

Map of storm track

Intensity plots

Map of storm track

Radial wind information

No radial wind information for this storm


Position and Intensity Table

BASIN ISO_TIME_________ NATURE LAT LON WMO WIND USA WIND MLC WIND MLC PRES
degrees north degrees east kts kts kts mb
NA 1892-10-05 00:00:00 TS 10.67 -54.90 35 35 30
NA 03:00:00 TS 10.65 -55.27 37 30
NA 06:00:00 TS 10.63 -55.70 40 40 30
NA 09:00:00 TS 10.62 -56.21 42 32
NA 12:00:00 TS 10.63 -56.70 45 45 35
NA 15:00:00 TS 10.68 -57.06 47 37
NA 18:00:00 TS 10.73 -57.37 50 50 40
NA 21:00:00 TS 10.77 -57.67 52 42
NA 1892-10-06 00:00:00 TS 10.80 -57.97 55 55 45
NA 03:00:00 TS 10.82 -58.23 55 50
NA 06:00:00 TS 10.83 -58.57 55 55 55
NA 09:00:00 TS 10.86 -59.09 57 57
NA 12:00:00 TS 10.90 -59.70 60 60 60
NA 15:00:00 TS 10.95 -60.28 62 62
NA 18:00:00 TS 11.00 -60.90 65 65 65
NA 21:00:00 TS 11.03 -61.55 67 67
NA 1892-10-07 00:00:00 TS 11.07 -62.23 70 70 70
NA 03:00:00 TS 11.14 -62.93 72 72
NA 06:00:00 TS 11.23 -63.63 75 75 75
NA 09:00:00 TS 11.29 -64.31 77 77
NA 12:00:00 TS 11.37 -65.00 80 80 80
NA 15:00:00 TS 11.48 -65.73 80 80
NA 18:00:00 TS 11.60 -66.47 80 80 80
NA 21:00:00 TS 11.67 -67.20 82 82
NA 1892-10-08 00:00:00 TS 11.73 -67.93 85 85 85
NA 03:00:00 TS 11.83 -68.69 85 85
NA 06:00:00 TS 11.93 -69.40 85 85 85
NA 09:00:00 TS 12.03 -70.01 85 85
NA 12:00:00 TS 12.13 -70.57 85 85 85
NA 15:00:00 TS 12.25 -71.14 85 85
NA 18:00:00 TS 12.37 -71.70 85 85 85
NA 21:00:00 TS 12.47 -72.26 85 85
NA 1892-10-09 00:00:00 TS 12.57 -72.80 85 85 85
NA 03:00:00 TS 12.65 -73.33 85 85
NA 06:00:00 TS 12.73 -73.87 85 85 85
NA 09:00:00 TS 12.83 -74.41 85 87
NA 12:00:00 TS 12.93 -74.97 85 85 90
NA 15:00:00 TS 13.05 -75.55 85 90
NA 18:00:00 TS 13.17 -76.13 85 85 90
NA 21:00:00 TS 13.26 -76.71 85 90
NA 1892-10-10 00:00:00 TS 13.37 -77.30 85 85 90
NA 03:00:00 TS 13.51 -77.92 85 90
NA 06:00:00 TS 13.67 -78.53 85 85 90
NA 09:00:00 TS 13.80 -79.10 85 87
NA 12:00:00 TS 13.93 -79.63 85 85 85
NA 15:00:00 TS 14.07 -80.15 85 85
NA 18:00:00 TS 14.20 -80.63 85 85 85
NA 21:00:00 TS 14.33 -81.08 85 85
NA 1892-10-11 00:00:00 TS 14.47 -81.50 85 85 85 990
NA 03:00:00 TS 14.59 -81.91 85 85
NA 06:00:00 TS 14.73 -82.33 85 85 85
NA 09:00:00 TS 14.92 -82.77 85 85
NA 12:00:00 TS 15.13 -83.23 85 85 85
NA 15:00:00 TS 15.35 -83.75 82 82
NA 18:00:00 TS 15.57 -84.27 80 80 80
NA 21:00:00 TS 15.77 -84.75 77 77
NA 1892-10-12 00:00:00 TS 15.97 -85.23 75 75 75
NA 03:00:00 TS 16.18 -85.75 77 77
NA 06:00:00 TS 16.40 -86.27 80 80 80
NA 09:00:00 TS 16.60 -86.75 82 82
NA 12:00:00 TS 16.80 -87.23 85 85 85
NA 15:00:00 TS 17.00 -87.75 85 85
NA 18:00:00 TS 17.20 -88.27 85 85 85
NA 21:00:00 TS 17.42 -88.75 72 72
NA 1892-10-13 00:00:00 TS 17.63 -89.23 60 60 60
NA 03:00:00 TS 17.81 -89.75 57 57
NA 06:00:00 TS 17.97 -90.27 55 55 55
NA 09:00:00 TS 18.14 -90.76 55 52
NA 12:00:00 TS 18.30 -91.23 55 55 50
NA 15:00:00 TS 18.45 -91.70 60 47
NA 18:00:00 TS 18.60 -92.13 65 65 45
NA 21:00:00 TS 18.74 -92.54 67 45
NA 1892-10-14 00:00:00 TS 18.87 -92.90 70 70 45
NA 03:00:00 TS 18.97 -93.22 72 45
NA 06:00:00 TS 19.07 -93.53 75 75 45
NA 09:00:00 TS 19.20 -93.88 77 47
NA 12:00:00 TS 19.33 -94.23 80 80 50
NA 15:00:00 TS 19.43 -94.58 82 52
NA 18:00:00 TS 19.53 -94.93 85 85 55
NA 21:00:00 TS 19.66 -95.32 85 57
NA 1892-10-15 00:00:00 TS 19.80 -95.70 85 85 60
NA 03:00:00 TS 19.93 -96.06 85 52
NA 06:00:00 TS 20.07 -96.40 85 85 45
NA 09:00:00 TS 20.20 -96.79 82 40
NA 12:00:00 TS 20.33 -97.10 80 80 35
NA 15:00:00 TS 20.47 -97.20 75 32
NA 18:00:00 TS 20.63 -97.30 70 70 30
NA 21:00:00 TS 20.82 -97.59 52 30
NA 1892-10-16 00:00:00 TS 21.03 -98.00 35 35 30

Source Information

Agency Information
USA hurdat2-1851-2018-051019.txt:Line=7326:UNNAMED
TOKYO
CMA
HKO
NEWDELHI
REUNION
BOM
NADI
WELLINGTON
DS824
TD9636
TD9635
NEUMANN
MLC

All available IBTrACS Data

SEASON BASIN SUBBASIN ISO_TIME_________ NATURE LAT LON WMO WIND WMO AGENCY DIST2LAND LANDFALL IFLAG USA AGENCY USA ATCF_ID USA LAT USA LON USA STATUS USA WIND USA SSHS MLC LAT MLC LON MLC CLASS MLC WIND MLC PRES STORM SPEED STORM DIR
Year degrees north degrees east kts km km degrees north degrees east kts 1 degrees north degrees east kts mb kts degrees
1892 NA NA 1892-10-05 00:00:00 TS 10.67 -54.90 35 hurdat_atl 537 506 O____________O hurdat_atl AL071892 11.50 -56.20 TS 35 0 9.00 -52.30 TD 30 7 267
1892 NA NA 03:00:00 TS 10.65 -55.27 499 464 P____________P AL071892 11.39 -56.62 TS 37 0 9.16 -52.58 TD 30 8 268
1892 NA NA 06:00:00 TS 10.63 -55.70 40 hurdat_atl 464 423 O____________O hurdat_atl AL071892 11.30 -57.00 TS 40 0 9.30 -53.10 TD 30 9 268
1892 NA NA 09:00:00 TS 10.62 -56.21 423 385 P____________P AL071892 11.23 -57.31 TS 42 0 9.40 -54.00 TD 32 10 270
1892 NA NA 12:00:00 TS 10.63 -56.70 45 hurdat_atl 385 371 O____________O hurdat_atl AL071892 11.20 -57.60 TS 45 0 9.50 -54.90 TS 35 8 274
1892 NA NA 15:00:00 TS 10.68 -57.06 367 349 P____________P AL071892 11.19 -57.91 TS 47 0 9.65 -55.38 TS 37 7 279
1892 NA NA 18:00:00 TS 10.73 -57.37 50 hurdat_atl 349 344 O____________O hurdat_atl AL071892 11.20 -58.20 TS 50 0 9.80 -55.70 TS 40 6 279
1892 NA NA 21:00:00 TS 10.77 -57.67 344 328 P____________P AL071892 11.21 -58.46 TS 52 0 9.90 -56.10 TS 42 6 276
1892 NA NA 1892-10-06 00:00:00 TS 10.80 -57.97 55 hurdat_atl 328 306 O____________O hurdat_atl AL071892 11.20 -58.70 TS 55 0 10.00 -56.50 TS 45 5 275
1892 NA NA 03:00:00 TS 10.82 -58.23 306 273 P____________P AL071892 11.15 -58.93 TS 55 0 10.15 -56.83 TS 50 6 273
1892 NA NA 06:00:00 TS 10.83 -58.57 55 hurdat_atl 262 208 O____________O hurdat_atl AL071892 11.10 -59.20 TS 55 0 10.30 -57.30 TS 55 8 273
1892 NA NA 09:00:00 TS 10.86 -59.09 208 143 P____________P AL071892 11.09 -59.57 TS 57 0 10.40 -58.13 TS 57 11 273
1892 NA NA 12:00:00 TS 10.90 -59.70 60 hurdat_atl 143 79 O____________O hurdat_atl AL071892 11.10 -60.00 TS 60 0 10.50 -59.10 TS 60 12 274
1892 NA NA 15:00:00 TS 10.95 -60.28 79 35 P____________P AL071892 11.10 -60.43 TS 62 0 10.65 -60.00 TS 62 12 275
1892 NA CS 18:00:00 TS 11.00 -60.90 65 hurdat_atl 35 33 O____________O hurdat_atl AL071892 11.10 -60.90 HU 65 1 10.80 -60.90 HU 65 12 274
1892 NA CS 21:00:00 TS 11.03 -61.55 33 33 P____________P AL071892 11.09 -61.43 HU 67 1 10.90 -61.80 HU 67 13 273
1892 NA CS 1892-10-07 00:00:00 TS 11.07 -62.23 70 hurdat_atl 44 44 O____________O hurdat_atl AL071892 11.10 -62.00 HU 70 1 11.00 -62.70 HU 70 14 275
1892 NA CS 03:00:00 TS 11.14 -62.93 44 44 P____________P AL071892 11.14 -62.59 HU 72 1 11.15 -63.61 HU 72 14 277
1892 NA CS 06:00:00 TS 11.23 -63.63 75 hurdat_atl 67 67 O____________O hurdat_atl AL071892 11.20 -63.20 HU 75 1 11.30 -64.50 HU 75 14 276
1892 NA CS 09:00:00 TS 11.29 -64.31 79 79 P____________P AL071892 11.24 -63.79 HU 77 1 11.40 -65.35 HU 77 13 276
1892 NA CS 12:00:00 TS 11.37 -65.00 80 hurdat_atl 125 104 O____________O hurdat_atl AL071892 11.30 -64.40 HU 80 1 11.50 -66.20 HU 80 14 278
1892 NA CS 15:00:00 TS 11.48 -65.73 105 100 P____________P AL071892 11.40 -65.04 HU 80 1 11.65 -67.09 HU 80 15 279
1892 NA CS 18:00:00 TS 11.60 -66.47 80 hurdat_atl 111 111 O____________O hurdat_atl AL071892 11.50 -65.70 HU 80 1 11.80 -68.00 HU 80 15 277
1892 NA CS 21:00:00 TS 11.67 -67.20 125 78 P____________P AL071892 11.55 -66.35 HU 82 1 11.91 -68.90 HU 82 14 275
1892 NA CS 1892-10-08 00:00:00 TS 11.73 -67.93 85 hurdat_atl 78 49 O____________O hurdat_atl AL071892 11.60 -67.00 HU 85 2 12.00 -69.80 HU 85 15 276
1892 NA CS 03:00:00 TS 11.83 -68.69 46 43 P____________P AL071892 11.69 -67.65 HU 85 2 12.10 -70.77 HU 85 15 278
1892 NA CS 06:00:00 TS 11.93 -69.40 85 hurdat_atl 43 0 O____________O hurdat_atl AL071892 11.80 -68.30 HU 85 2 12.20 -71.60 HU 85 13 279
1892 NA NA 09:00:00 TS 12.03 -70.01 0 0 P____________P AL071892 11.90 -68.96 HU 85 2 12.29 -72.11 HU 85 12 280
1892 NA CS 12:00:00 TS 12.13 -70.57 85 hurdat_atl 39 10 O____________O hurdat_atl AL071892 12.00 -69.60 HU 85 2 12.40 -72.50 HU 85 11 281
1892 NA CS 15:00:00 TS 12.25 -71.14 10 0 P____________P AL071892 12.10 -70.21 HU 85 2 12.55 -73.00 HU 85 11 282
1892 NA CS 18:00:00 TS 12.37 -71.70 85 hurdat_atl 0 0 O____________O hurdat_atl AL071892 12.20 -70.80 HU 85 2 12.70 -73.50 HU 85 11 281
1892 NA CS 21:00:00 TS 12.47 -72.26 35 35 P____________P AL071892 12.31 -71.41 HU 85 2 12.80 -73.95 HU 85 11 281
1892 NA CS 1892-10-09 00:00:00 TS 12.57 -72.80 85 hurdat_atl 79 79 O____________O hurdat_atl AL071892 12.40 -72.00 HU 85 2 12.90 -74.40 HU 85 11 280
1892 NA CS 03:00:00 TS 12.65 -73.33 114 114 P____________P AL071892 12.45 -72.55 HU 85 2 13.05 -74.90 HU 85 11 279
1892 NA CS 06:00:00 TS 12.73 -73.87 85 hurdat_atl 163 163 O____________O hurdat_atl AL071892 12.50 -73.10 HU 85 2 13.20 -75.40 HU 85 11 280
1892 NA CS 09:00:00 TS 12.83 -74.41 180 180 P____________P AL071892 12.59 -73.69 HU 85 2 13.30 -75.86 HU 87 11 281
1892 NA CS 12:00:00 TS 12.93 -74.97 85 hurdat_atl 209 209 O____________O hurdat_atl AL071892 12.70 -74.30 HU 85 2 13.40 -76.30 HU 90 11 281
1892 NA CS 15:00:00 TS 13.05 -75.55 233 233 P____________P AL071892 12.80 -74.94 HU 85 2 13.55 -76.75 HU 90 12 282
1892 NA CS 18:00:00 TS 13.17 -76.13 85 hurdat_atl 278 278 O____________O hurdat_atl AL071892 12.90 -75.60 HU 85 2 13.70 -77.20 HU 90 12 281
1892 NA CS 21:00:00 TS 13.26 -76.71 318 318 P____________P AL071892 12.99 -76.24 HU 85 2 13.80 -77.65 HU 90 12 280
1892 NA CS 1892-10-10 00:00:00 TS 13.37 -77.30 85 hurdat_atl 363 363 O____________O hurdat_atl AL071892 13.10 -76.90 HU 85 2 13.90 -78.10 HU 90 12 282
1892 NA CS 03:00:00 TS 13.51 -77.92 413 413 P____________P AL071892 13.24 -77.61 HU 85 2 14.05 -78.55 HU 90 12 284
1892 NA CS 06:00:00 TS 13.67 -78.53 85 hurdat_atl 468 446 O____________O hurdat_atl AL071892 13.40 -78.30 HU 85 2 14.20 -79.00 HU 90 12 284
1892 NA CS 09:00:00 TS 13.80 -79.10 446 391 P____________P AL071892 13.55 -78.93 HU 85 2 14.31 -79.44 HU 87 11 284
1892 NA CS 12:00:00 TS 13.93 -79.63 85 hurdat_atl 391 335 O____________O hurdat_atl AL071892 13.70 -79.50 HU 85 2 14.40 -79.90 HU 85 11 285
1892 NA CS 15:00:00 TS 14.07 -80.15 324 280 P____________P AL071892 13.85 -80.03 HU 85 2 14.50 -80.39 HU 85 10 285
1892 NA CS 18:00:00 TS 14.20 -80.63 85 hurdat_atl 280 226 O____________O hurdat_atl AL071892 14.00 -80.50 HU 85 2 14.60 -80.90 HU 85 9 287
1892 NA CS 21:00:00 TS 14.33 -81.08 226 180 P____________P AL071892 14.15 -80.92 HU 85 2 14.70 -81.41 HU 85 9 288
1892 NA CS 1892-10-11 00:00:00 TS 14.47 -81.50 85 hurdat_atl 180 136 O____________O hurdat_atl AL071892 14.30 -81.30 HU 85 2 14.80 -81.90 HU 85 990 8 288
1892 NA CS 03:00:00 TS 14.59 -81.91 136 92 P____________P AL071892 14.44 -81.69 HU 85 2 14.88 -82.36 HU 85 9 288
1892 NA CS 06:00:00 TS 14.73 -82.33 85 hurdat_atl 92 44 O____________O hurdat_atl AL071892 14.60 -82.10 HU 85 2 15.00 -82.80 HU 85 9 292
1892 NA CS 09:00:00 TS 14.92 -82.77 34 10 P____________P AL071892 14.78 -82.53 HU 85 2 15.19 -83.25 HU 85 10 295
1892 NA CS 12:00:00 TS 15.13 -83.23 85 hurdat_atl 10 0 O____________O hurdat_atl AL071892 15.00 -83.00 HU 85 2 15.40 -83.70 HU 85 10 294
1892 NA CS 15:00:00 TS 15.35 -83.75 10 0 P____________P AL071892 15.25 -83.54 HU 82 1 15.55 -84.15 HU 82 11 294
1892 NA CS 18:00:00 TS 15.57 -84.27 80 hurdat_atl 0 0 O____________O hurdat_atl AL071892 15.50 -84.10 HU 80 1 15.70 -84.60 HU 80 11 293
1892 NA NA 21:00:00 TS 15.77 -84.75 0 0 P____________P AL071892 15.70 -84.60 HU 77 1 15.90 -85.05 HU 77 10 293
1892 NA CS 1892-10-12 00:00:00 TS 15.97 -85.23 75 hurdat_atl 11 11 O____________O hurdat_atl AL071892 15.90 -85.10 HU 75 1 16.10 -85.50 HU 75 10 293
1892 NA CS 03:00:00 TS 16.18 -85.75 33 33 P____________P AL071892 16.14 -85.65 HU 77 1 16.26 -85.95 HU 77 11 294
1892 NA CS 06:00:00 TS 16.40 -86.27 80 hurdat_atl 67 67 O____________O hurdat_atl AL071892 16.40 -86.20 HU 80 1 16.40 -86.40 HU 80 10 294
1892 NA CS 09:00:00 TS 16.60 -86.75 90 89 P____________P AL071892 16.65 -86.70 HU 82 1 16.51 -86.85 HU 82 10 293
1892 NA CS 12:00:00 TS 16.80 -87.23 85 hurdat_atl 108 53 O____________O hurdat_atl AL071892 16.90 -87.20 HU 85 2 16.60 -87.30 HU 85 10 292
1892 NA CS 15:00:00 TS 17.00 -87.75 42 10 P____________P AL071892 17.15 -87.75 HU 85 2 16.69 -87.75 HU 85 11 292
1892 NA CS 18:00:00 TS 17.20 -88.27 85 hurdat_atl 0 0 O____________O hurdat_atl AL071892 17.40 -88.30 HU 85 2 16.80 -88.20 HU 85 10 294
1892 NA NA 21:00:00 TS 17.42 -88.75 0 0 P____________P AL071892 17.66 -88.80 HU 72 1 16.95 -88.65 HU 72 10 295
1892 NA NA 1892-10-13 00:00:00 TS 17.63 -89.23 60 hurdat_atl 0 0 O____________O hurdat_atl AL071892 17.90 -89.30 TS 60 0 17.10 -89.10 TS 60 10 292
1892 NA NA 03:00:00 TS 17.81 -89.75 0 0 P____________P AL071892 18.11 -89.85 TS 57 0 17.21 -89.55 TS 57 10 289
1892 NA NA 06:00:00 TS 17.97 -90.27 55 hurdat_atl 0 0 O____________O hurdat_atl AL071892 18.30 -90.40 TS 55 0 17.30 -90.00 TS 55 10 289
1892 NA NA 09:00:00 TS 18.14 -90.76 0 0 P____________P AL071892 18.51 -90.92 TS 55 0 17.39 -90.45 TS 52 10 290
1892 NA NA 12:00:00 TS 18.30 -91.23 55 hurdat_atl 0 0 O____________O hurdat_atl AL071892 18.70 -91.40 TS 55 0 17.50 -90.90 TS 50 9 290
1892 NA GM 15:00:00 TS 18.45 -91.70 11 0 P____________P AL071892 18.86 -91.87 TS 60 0 17.65 -91.35 TS 47 9 289
1892 NA NA 18:00:00 TS 18.60 -92.13 65 hurdat_atl 0 0 O____________O hurdat_atl AL071892 19.00 -92.30 HU 65 1 17.80 -91.80 TS 45 8 290
1892 NA GM 21:00:00 TS 18.74 -92.54 11 11 P____________P AL071892 19.16 -92.68 HU 67 1 17.91 -92.25 TS 45 8 290
1892 NA GM 1892-10-14 00:00:00 TS 18.87 -92.90 70 hurdat_atl 39 39 O____________O hurdat_atl AL071892 19.30 -93.00 HU 70 1 18.00 -92.70 TS 45 7 289
1892 NA GM 03:00:00 TS 18.97 -93.22 69 69 P____________P AL071892 19.40 -93.26 HU 72 1 18.10 -93.15 TS 45 6 288
1892 NA GM 06:00:00 TS 19.07 -93.53 75 hurdat_atl 89 89 O____________O hurdat_atl AL071892 19.50 -93.50 HU 75 1 18.20 -93.60 TS 45 7 291
1892 NA GM 09:00:00 TS 19.20 -93.88 100 100 P____________P AL071892 19.65 -93.79 HU 77 1 18.30 -94.05 TS 47 7 292
1892 NA GM 12:00:00 TS 19.33 -94.23 80 hurdat_atl 114 98 O____________O hurdat_atl AL071892 19.80 -94.10 HU 80 1 18.40 -94.50 TS 50 7 289
1892 NA GM 15:00:00 TS 19.43 -94.58 98 94 P____________P AL071892 19.90 -94.39 HU 82 1 18.50 -94.95 TS 52 7 287
1892 NA GM 18:00:00 TS 19.53 -94.93 85 hurdat_atl 94 91 O____________O hurdat_atl AL071892 20.00 -94.70 HU 85 2 18.60 -95.40 TS 55 7 288
1892 NA GM 21:00:00 TS 19.66 -95.32 100 73 P____________P AL071892 20.14 -95.05 HU 85 2 18.70 -95.85 TS 57 8 290
1892 NA GM 1892-10-15 00:00:00 TS 19.80 -95.70 85 hurdat_atl 73 41 O____________O hurdat_atl AL071892 20.30 -95.40 HU 85 2 18.80 -96.30 TS 60 7 291
1892 NA GM 03:00:00 TS 19.93 -96.06 31 15 P____________P AL071892 20.45 -95.71 HU 85 2 18.90 -96.75 TS 52 7 292
1892 NA GM 06:00:00 TS 20.07 -96.40 85 hurdat_atl 15 0 O____________O hurdat_atl AL071892 20.60 -96.00 HU 85 2 19.00 -97.20 TS 45 7 291
1892 NA NA 09:00:00 TS 20.20 -96.79 0 0 P____________P AL071892 20.74 -96.29 HU 82 1 19.11 -97.78 TS 40 7 292
1892 NA NA 12:00:00 TS 20.33 -97.10 80 hurdat_atl 0 0 O____________O hurdat_atl AL071892 20.90 -96.60 HU 80 1 19.20 -98.10 TS 35 5 305
1892 NA NA 15:00:00 TS 20.47 -97.20 0 0 P____________P AL071892 21.09 -96.94 HU 75 1 19.24 -97.72 TS 32 4 329
1892 NA NA 18:00:00 TS 20.63 -97.30 70 hurdat_atl 0 0 O____________O hurdat_atl AL071892 21.30 -97.30 HU 70 1 19.30 -97.30 TD 30 5 314
1892 NA NA 21:00:00 TS 20.82 -97.59 0 0 P____________P AL071892 21.50 -97.65 HU 52 0 19.47 -97.46 TD 30 8 301
1892 NA NA 1892-10-16 00:00:00 TS 21.03 -98.00 35 hurdat_atl 0 O____________O hurdat_atl AL071892 21.70 -98.00 TS 35 0 19.70 -98.00 TD 30 9 298